createdAt,value
2018-10-18T00:00:56.149Z,98.20
2018-10-18T00:06:00.268Z,97.80
2018-10-18T00:11:05.606Z,97.50
2018-10-18T00:16:10.092Z,97.80
2018-10-18T00:21:14.283Z,98.40
2018-10-18T00:26:18.372Z,98.40
2018-10-18T00:31:22.548Z,98.50
2018-10-18T00:36:26.642Z,98.80
2018-10-18T00:41:31.484Z,99.00
2018-10-18T00:46:35.805Z,99.20
2018-10-18T00:51:40.599Z,99.10
2018-10-18T00:56:44.849Z,99.20
2018-10-18T01:01:48.920Z,98.80
2018-10-18T01:06:53.001Z,98.70
2018-10-18T01:11:57.868Z,98.80
2018-10-18T01:17:03.252Z,98.70
2018-10-18T01:29:40.656Z,98.50
2018-10-18T01:34:44.872Z,98.80
2018-10-18T01:39:48.961Z,99.10
2018-10-18T01:44:53.135Z,99.90
2018-10-18T01:49:57.951Z,99.90
2018-10-18T01:55:02.516Z,99.90
2018-10-18T02:00:08.367Z,99.90
2018-10-18T02:05:12.632Z,99.90
2018-10-18T02:10:17.182Z,99.90
2018-10-18T02:15:21.773Z,99.90
2018-10-18T02:20:26.418Z,99.90
2018-10-18T02:25:30.573Z,99.90
2018-10-18T02:30:34.673Z,99.90
2018-10-18T02:35:38.998Z,99.70
2018-10-18T02:40:43.308Z,99.90
2018-10-18T02:45:47.600Z,99.90
2018-10-18T02:50:52.355Z,99.90
2018-10-18T02:55:56.433Z,99.90
2018-10-18T03:01:00.584Z,99.90
2018-10-18T03:06:04.781Z,99.90
2018-10-18T03:11:09.843Z,99.90
2018-10-18T03:16:14.470Z,99.90
2018-10-18T03:21:18.945Z,99.90
2018-10-18T03:26:23.077Z,99.90
2018-10-18T03:31:27.294Z,99.90
2018-10-18T03:36:32.336Z,99.90
2018-10-18T03:41:37.110Z,99.90
2018-10-18T03:46:42.261Z,99.90
2018-10-18T03:51:46.456Z,99.90
2018-10-18T03:56:51.470Z,99.90
2018-10-18T04:01:56.148Z,99.90
2018-10-18T04:07:00.458Z,99.90
2018-10-18T04:12:05.128Z,99.90
2018-10-18T04:17:10.198Z,99.90
2018-10-18T04:22:14.544Z,99.90
2018-10-18T04:27:19.096Z,99.90
2018-10-18T04:32:23.645Z,99.90
2018-10-18T04:37:27.796Z,99.90
2018-10-18T04:42:31.867Z,99.90
2018-10-18T04:47:41.903Z,99.90
2018-10-18T04:52:46.561Z,99.90
2018-10-18T04:57:50.751Z,99.90
2018-10-18T05:02:54.938Z,99.90
2018-10-18T05:07:59.027Z,99.90
2018-10-18T05:13:04.033Z,99.90
2018-10-18T05:18:08.961Z,99.90
2018-10-18T05:23:13.071Z,99.90
2018-10-18T05:28:17.404Z,99.90
2018-10-18T05:33:21.585Z,99.90
2018-10-18T05:38:26.311Z,99.90
2018-10-18T05:43:30.835Z,99.90
2018-10-18T05:48:35.421Z,99.90
2018-10-18T05:53:39.602Z,99.90
2018-10-18T05:58:43.624Z,99.90
2018-10-18T06:03:47.673Z,99.90
2018-10-18T06:08:53.730Z,99.90
2018-10-18T06:13:58.088Z,99.90
2018-10-18T06:19:02.226Z,99.90
2018-10-18T06:24:06.315Z,99.90
2018-10-18T06:29:11.422Z,99.40
2018-10-18T06:34:15.671Z,99.00
2018-10-18T06:39:20.176Z,98.60
2018-10-18T06:44:24.104Z,98.90
2018-10-18T06:49:28.247Z,98.20
2018-10-18T06:54:32.354Z,97.30
2018-10-18T06:59:37.150Z,96.30
2018-10-18T07:04:42.619Z,95.60
2018-10-18T07:09:46.878Z,94.80
2018-10-18T07:14:51.003Z,93.80
2018-10-18T07:19:55.115Z,92.50
2018-10-18T07:24:59.927Z,91.40
2018-10-18T07:30:05.547Z,90.80
2018-10-18T07:35:10.779Z,90.30
2018-10-18T07:40:16.167Z,90.30
2018-10-18T07:45:20.783Z,86.80
2018-10-18T07:50:24.887Z,81.50
2018-10-18T07:55:29.043Z,76.20
2018-10-18T08:00:33.212Z,72.20
2018-10-18T08:05:37.968Z,70.10
2018-10-18T08:10:43.023Z,68.40
2018-10-18T08:15:47.264Z,66.00
2018-10-18T08:20:51.345Z,64.30
2018-10-18T08:25:55.429Z,61.70
2018-10-18T08:30:59.608Z,61.90
2018-10-18T08:36:04.624Z,62.30
2018-10-18T08:41:10.052Z,61.30
2018-10-18T08:46:14.637Z,62.90
2018-10-18T08:51:19.195Z,63.90
2018-10-18T08:56:23.795Z,63.90
2018-10-18T09:01:27.896Z,64.50
2018-10-18T09:06:32.161Z,64.50
2018-10-18T09:11:37.125Z,64.20
2018-10-18T09:16:41.600Z,62.80
2018-10-18T09:21:46.598Z,59.80
2018-10-18T09:26:50.733Z,59.30
2018-10-18T09:31:54.819Z,58.70
2018-10-18T09:36:59.012Z,57.90
2018-10-18T09:42:03.669Z,56.30
2018-10-18T09:47:07.948Z,56.60
2018-10-18T09:52:12.839Z,59.50
2018-10-18T09:57:16.968Z,60.10
2018-10-18T10:02:26.757Z,61.20
2018-10-18T10:07:30.834Z,62.30
2018-10-18T10:12:36.013Z,65.30
2018-10-18T10:17:40.763Z,67.20
2018-10-18T10:22:45.927Z,65.70
2018-10-18T10:27:50.052Z,66.30
2018-10-18T10:32:54.858Z,65.60
2018-10-18T10:37:59.058Z,65.50
2018-10-18T10:43:03.245Z,67.50
2018-10-18T10:48:07.913Z,65.40
2018-10-18T10:53:12.074Z,63.90
2018-10-18T10:58:16.290Z,64.30
2018-10-18T11:03:21.023Z,64.90
2018-10-18T11:08:25.656Z,64.40
2018-10-18T11:13:30.515Z,63.10
2018-10-18T11:18:36.725Z,62.80
2018-10-18T11:23:41.633Z,61.80
2018-10-18T11:28:46.135Z,63.90
2018-10-18T11:33:50.204Z,62.10
2018-10-18T11:38:54.350Z,62.70
2018-10-18T11:43:58.943Z,61.30
2018-10-18T11:49:03.568Z,59.70
2018-10-18T11:54:07.978Z,59.80
2018-10-18T11:59:12.516Z,60.50
2018-10-18T12:04:17.831Z,60.80
2018-10-18T12:09:22.658Z,59.50
2018-10-18T12:14:26.881Z,59.70
2018-10-18T12:19:31.218Z,60.00
2018-10-18T12:24:35.923Z,58.50
2018-10-18T12:29:40.585Z,58.40
2018-10-18T12:34:44.742Z,58.60
2018-10-18T12:39:48.996Z,57.90
2018-10-18T12:44:53.241Z,57.50
2018-10-18T12:49:57.979Z,57.30
2018-10-18T12:55:02.596Z,56.60
2018-10-18T13:00:09.504Z,56.70
2018-10-18T13:05:14.023Z,57.20
2018-10-18T13:10:18.416Z,58.40
2018-10-18T13:15:22.729Z,57.40
2018-10-18T13:20:26.878Z,57.50
2018-10-18T13:25:30.990Z,56.30
2018-10-18T13:30:35.412Z,57.60
2018-10-18T13:35:40.297Z,57.80
2018-10-18T13:40:44.761Z,58.50
2018-10-18T13:45:49.156Z,59.00
2018-10-18T13:50:53.347Z,58.40
2018-10-18T13:55:57.649Z,58.50
2018-10-18T14:01:02.501Z,58.30
2018-10-18T14:06:07.410Z,58.60
2018-10-18T14:11:11.992Z,58.30
2018-10-18T14:16:16.295Z,58.10
2018-10-18T14:21:21.195Z,59.10
2018-10-18T14:26:25.308Z,58.60
2018-10-18T14:31:30.453Z,59.30
2018-10-18T14:36:34.722Z,59.50
2018-10-18T14:41:39.143Z,59.50
2018-10-18T14:46:44.072Z,59.60
2018-10-18T14:51:48.347Z,60.40
2018-10-18T14:56:52.426Z,61.00
2018-10-18T15:01:56.561Z,60.70
2018-10-18T15:07:00.679Z,61.50
2018-10-18T15:12:06.001Z,61.50
2018-10-18T15:17:10.784Z,61.00
2018-10-18T15:22:17.018Z,59.70
2018-10-18T15:27:23.484Z,59.40
2018-10-18T15:32:27.493Z,60.20
2018-10-18T15:37:31.519Z,61.80
2018-10-18T15:42:36.032Z,63.10
2018-10-18T15:47:40.759Z,64.40
2018-10-18T15:52:45.348Z,65.70
2018-10-18T15:57:49.541Z,66.70
2018-10-18T16:02:53.730Z,67.10
2018-10-18T16:07:57.899Z,67.80
2018-10-18T16:13:02.360Z,68.80
2018-10-18T16:18:06.809Z,69.50
2018-10-18T16:23:11.230Z,70.60
2018-10-18T16:28:15.590Z,71.40
2018-10-18T16:33:19.696Z,72.30
2018-10-18T16:38:24.729Z,73.40
2018-10-18T16:43:29.393Z,74.50
2018-10-18T16:48:33.685Z,75.20
2018-10-18T16:53:38.491Z,76.30
2018-10-18T16:58:42.918Z,77.30
2018-10-18T17:03:47.246Z,77.60
2018-10-18T17:08:51.775Z,77.80
2018-10-18T17:13:56.276Z,78.30
2018-10-18T17:19:00.428Z,78.70
2018-10-18T17:24:04.963Z,78.60
2018-10-18T17:29:09.896Z,79.00
2018-10-18T17:34:14.147Z,79.50
2018-10-18T17:39:18.248Z,79.60
2018-10-18T17:44:22.420Z,80.30
2018-10-18T17:49:26.767Z,80.50
2018-10-18T17:54:31.168Z,80.70
2018-10-18T17:59:35.730Z,81.00
2018-10-18T18:04:40.356Z,80.90
2018-10-18T18:09:44.754Z,81.20
2018-10-18T18:14:48.966Z,81.50
2018-10-18T18:19:53.755Z,82.20
2018-10-18T18:24:58.351Z,83.50
2018-10-18T18:30:03.808Z,83.80
2018-10-18T18:35:08.607Z,84.10
2018-10-18T18:40:12.885Z,85.00
2018-10-18T18:45:22.744Z,85.70
2018-10-18T18:50:27.234Z,86.90
2018-10-18T18:55:31.453Z,87.80
2018-10-18T19:00:35.726Z,88.70
2018-10-18T19:05:40.784Z,89.80
2018-10-18T19:10:45.402Z,90.30
2018-10-18T19:15:51.004Z,90.70
2018-10-18T19:20:56.486Z,91.00
2018-10-18T19:26:01.577Z,91.20
2018-10-18T19:31:05.977Z,91.40
2018-10-18T19:36:10.452Z,91.50
2018-10-18T19:41:14.961Z,91.70
2018-10-18T19:46:19.756Z,92.00
2018-10-18T19:51:23.837Z,92.30
2018-10-18T19:56:28.140Z,92.60
2018-10-18T20:01:32.620Z,92.90
2018-10-18T20:06:37.643Z,93.30
2018-10-18T20:11:42.541Z,93.20
2018-10-18T20:16:47.028Z,94.20
2018-10-18T20:21:52.532Z,94.60
2018-10-18T20:26:56.971Z,94.90
2018-10-18T20:32:01.102Z,94.60
2018-10-18T20:37:05.544Z,94.90
2018-10-18T20:42:09.957Z,95.30
2018-10-18T20:47:14.622Z,96.00
2018-10-18T20:52:18.948Z,96.20
2018-10-18T20:57:23.289Z,96.20
2018-10-18T21:02:27.489Z,96.10
2018-10-18T21:07:31.684Z,96.00
2018-10-18T21:12:37.415Z,96.10
2018-10-18T21:17:42.178Z,95.90
2018-10-18T21:22:46.824Z,95.90
2018-10-18T21:27:52.118Z,96.20
2018-10-18T21:32:56.665Z,97.40
2018-10-18T21:38:01.220Z,96.90
2018-10-18T21:43:05.434Z,96.20
2018-10-18T21:48:09.943Z,97.30
2018-10-18T21:53:15.019Z,97.40
2018-10-18T21:58:19.307Z,98.10
2018-10-18T22:03:23.737Z,98.40
2018-10-18T22:08:28.202Z,97.80
2018-10-18T22:13:32.618Z,97.00
2018-10-18T22:18:37.421Z,97.50
2018-10-18T22:23:41.654Z,97.70
2018-10-18T22:28:46.091Z,97.90
2018-10-18T22:33:50.423Z,98.00
2018-10-18T22:38:55.568Z,98.50
2018-10-18T22:44:00.104Z,98.00
2018-10-18T22:49:04.465Z,98.30
2018-10-18T22:54:08.843Z,97.50
2018-10-18T22:59:14.898Z,97.50
2018-10-18T23:04:19.303Z,97.90
2018-10-18T23:09:23.402Z,98.70
2018-10-18T23:14:27.477Z,99.00
2018-10-18T23:19:32.464Z,98.50
2018-10-18T23:24:39.095Z,98.60
2018-10-18T23:29:43.528Z,99.00
2018-10-18T23:34:48.443Z,98.90
2018-10-18T23:39:53.515Z,99.00
2018-10-18T23:44:57.638Z,98.70
2018-10-18T23:50:01.801Z,98.40
2018-10-18T23:55:06.559Z,99.20
